Time;durP1;ratioP1;P1;durP2;ratioP2;P2;SDS_P1;SDS_P2;PMS_P1;PMS_P2;Temp;Humidity;BMP_temperature;BMP_pressure;BME280_temperature;BME280_humidity;BME280_pressure;Samples;Min_cycle;Max_cycle;Signal;HPM_P1;HPM_P2
2023/04/07 00:00:25;;;;;;;0.00;0.00;;;7.20;99.90;;;;;;5090950;28;20616;-62
2023/04/07 00:02:51;;;;;;;0.00;0.00;;;7.20;99.90;;;;;;5091062;28;20259;-60
2023/04/07 00:05:17;;;;;;;0.20;0.20;;;7.20;99.90;;;;;;5090927;28;20262;-60
2023/04/07 00:07:42;;;;;;;0.32;0.32;;;7.30;99.90;;;;;;5090940;28;20168;-60
2023/04/07 00:10:08;;;;;;;0.00;0.00;;;7.30;99.90;;;;;;5090969;28;20267;-60
2023/04/07 00:12:34;;;;;;;0.00;0.00;;;7.30;99.90;;;;;;5090713;28;20605;-62
2023/04/07 00:15:00;;;;;;;0.00;0.00;;;7.30;99.90;;;;;;5091040;28;20168;-61
2023/04/07 00:17:25;;;;;;;0.00;0.00;;;7.30;99.90;;;;;;5090638;28;20534;-62
2023/04/07 00:19:51;;;;;;;0.00;0.00;;;7.20;99.90;;;;;;5090724;28;20237;-61
2023/04/07 00:22:17;;;;;;;0.38;0.22;;;7.30;99.90;;;;;;5090587;28;20191;-62
2023/04/07 00:24:42;;;;;;;0.00;0.00;;;7.30;99.90;;;;;;5090539;28;20271;-61
2023/04/07 00:27:08;;;;;;;0.05;0.05;;;7.30;99.90;;;;;;5072397;28;20224;-62
2023/04/07 00:29:33;;;;;;;0.25;0.25;;;7.30;99.90;;;;;;5090808;28;20693;-62
2023/04/07 00:31:59;;;;;;;0.93;0.88;;;7.30;99.90;;;;;;5090855;28;20190;-62
2023/04/07 00:34:24;;;;;;;0.95;0.95;;;7.30;99.90;;;;;;5085809;28;20191;-62
2023/04/07 00:36:53;;;;;;;0.00;0.00;;;7.30;99.90;;;;;;5088841;28;20202;-61
2023/04/07 00:39:19;;;;;;;0.00;0.00;;;7.30;99.90;;;;;;5089615;28;20180;-62
2023/04/07 00:41:45;;;;;;;0.40;0.40;;;7.30;99.90;;;;;;5089831;28;20250;-61
2023/04/07 00:44:11;;;;;;;0.40;0.32;;;7.30;99.90;;;;;;5088451;28;20674;-62
2023/04/07 00:46:37;;;;;;;0.10;0.10;;;7.30;99.90;;;;;;5090029;28;20176;-62
2023/04/07 00:49:02;;;;;;;0.00;0.00;;;7.30;99.90;;;;;;5080117;28;20569;-62
2023/04/07 00:51:28;;;;;;;0.00;0.00;;;7.30;99.90;;;;;;5078158;28;20180;-62
2023/04/07 00:53:54;;;;;;;0.03;0.03;;;7.30;99.90;;;;;;5090634;28;20188;-62
2023/04/07 00:56:20;;;;;;;0.38;0.38;;;7.30;99.90;;;;;;5090321;28;20191;-62
2023/04/07 00:58:45;;;;;;;0.28;0.28;;;7.30;99.90;;;;;;5089735;28;20321;-62
2023/04/07 01:01:41;;;;;;;0.00;0.00;;;7.30;99.90;;;;;;5090745;28;20296;-62
2023/04/07 01:04:32;;;;;;;0.00;0.00;;;7.30;99.90;;;;;;5090195;28;20180;-62
2023/04/07 01:07:08;;;;;;;0.00;0.00;;;7.30;99.90;;;;;;5090023;28;20183;-61
2023/04/07 01:09:52;;;;;;;0.00;0.00;;;7.40;99.90;;;;;;5090302;28;20168;-62
2023/04/07 01:12:38;;;;;;;0.00;0.00;;;7.40;99.90;;;;;;5072453;28;20219;-62
2023/04/07 01:15:09;;;;;;;0.10;0.10;;;7.40;99.90;;;;;;5090366;28;20516;-61
2023/04/07 01:17:36;;;;;;;0.00;0.00;;;7.50;99.90;;;;;;5089991;28;20642;-62
2023/04/07 01:20:06;;;;;;;0.10;0.10;;;7.50;99.90;;;;;;5090193;28;20219;-62
2023/04/07 01:22:38;;;;;;;0.00;0.00;;;7.50;99.90;;;;;;5090355;28;20180;-62
2023/04/07 01:25:21;;;;;;;0.00;0.00;;;7.50;99.90;;;;;;5090300;28;20172;-62
2023/04/07 01:28:11;;;;;;;0.00;0.00;;;7.50;99.90;;;;;;5089785;28;20576;-62
2023/04/07 01:30:42;;;;;;;0.00;0.00;;;7.40;99.90;;;;;;5090418;28;20276;-62
2023/04/07 01:33:10;;;;;;;0.10;0.10;;;7.50;99.90;;;;;;5089609;28;20184;-62
2023/04/07 01:35:37;;;;;;;0.00;0.00;;;7.50;99.90;;;;;;5090233;28;20293;-62
2023/04/07 01:38:03;;;;;;;0.00;0.00;;;7.40;99.90;;;;;;5090161;28;20181;-62
2023/04/07 01:40:31;;;;;;;0.00;0.00;;;7.40;99.90;;;;;;5090247;28;20215;-62
2023/04/07 01:42:58;;;;;;;0.00;0.00;;;7.40;99.90;;;;;;5086920;28;20259;-61
2023/04/07 01:45:26;;;;;;;0.00;0.00;;;7.50;99.90;;;;;;5090172;28;20554;-62
2023/04/07 01:47:53;;;;;;;0.00;0.00;;;7.50;99.90;;;;;;5089249;28;20180;-61
2023/04/07 01:50:20;;;;;;;0.00;0.00;;;7.50;99.90;;;;;;5089801;28;20180;-62
2023/04/07 01:52:46;;;;;;;0.00;0.00;;;7.60;99.90;;;;;;5091459;28;20188;-62
2023/04/07 01:55:11;;;;;;;0.10;0.10;;;7.60;99.90;;;;;;5092334;28;20222;-61
2023/04/07 01:57:37;;;;;;;0.08;0.08;;;7.60;99.90;;;;;;5092965;28;20582;-60
2023/04/07 02:00:03;;;;;;;0.00;0.00;;;7.70;99.90;;;;;;5093717;28;20215;-60
2023/04/07 02:02:29;;;;;;;0.00;0.00;;;7.70;99.90;;;;;;5093261;28;20183;-60
2023/04/07 02:05:04;;;;;;;0.00;0.00;;;7.70;99.90;;;;;;5093585;28;20191;-60
2023/04/07 02:07:52;;;;;;;0.00;0.00;;;7.70;99.90;;;;;;5093188;28;20617;-60
2023/04/07 02:10:22;;;;;;;0.00;0.00;;;7.70;99.90;;;;;;5093211;28;20191;-60
2023/04/07 02:12:48;;;;;;;0.00;0.00;;;7.80;99.90;;;;;;5093007;28;20961;-61
2023/04/07 02:15:15;;;;;;;0.32;0.30;;;7.80;99.90;;;;;;5093101;28;20180;-62
2023/04/07 02:17:43;;;;;;;0.00;0.00;;;7.80;99.90;;;;;;5092137;28;20270;-62
2023/04/07 02:20:10;;;;;;;0.47;0.47;;;7.80;99.90;;;;;;5092863;28;20211;-62
2023/04/07 02:22:40;;;;;;;0.00;0.00;;;7.80;99.90;;;;;;5092678;28;20191;-62
2023/04/07 02:25:25;;;;;;;0.00;0.00;;;7.80;99.90;;;;;;5092929;28;20184;-61
2023/04/07 02:27:51;;;;;;;0.00;0.00;;;7.80;99.90;;;;;;5092864;28;20597;-62
2023/04/07 02:30:17;;;;;;;0.00;0.00;;;7.80;99.90;;;;;;5092804;28;20661;-62
2023/04/07 02:32:43;;;;;;;0.20;0.20;;;7.80;99.90;;;;;;5092796;28;20180;-62
2023/04/07 02:35:08;;;;;;;0.20;0.20;;;7.80;99.90;;;;;;5092076;28;20188;-62
2023/04/07 02:37:34;;;;;;;0.00;0.00;;;7.80;99.90;;;;;;5090015;28;20176;-62
2023/04/07 02:40:00;;;;;;;0.20;0.20;;;7.80;99.90;;;;;;5092459;28;20200;-62
2023/04/07 02:42:25;;;;;;;0.00;0.00;;;7.80;99.90;;;;;;5092609;28;20190;-62
2023/04/07 02:44:51;;;;;;;0.00;0.00;;;7.80;99.90;;;;;;5091204;28;20184;-62
2023/04/07 02:47:16;;;;;;;0.00;0.00;;;7.80;99.90;;;;;;5091681;28;20179;-62
2023/04/07 02:49:42;;;;;;;0.00;0.00;;;7.80;99.90;;;;;;5092638;28;20173;-62
2023/04/07 02:52:07;;;;;;;0.00;0.00;;;7.80;99.90;;;;;;5092855;28;20251;-62
2023/04/07 02:54:33;;;;;;;0.10;0.10;;;7.80;99.90;;;;;;5092303;28;20176;-62
2023/04/07 02:56:58;;;;;;;0.00;0.00;;;7.80;99.90;;;;;;5092153;28;20241;-62
2023/04/07 02:59:24;;;;;;;0.00;0.00;;;7.80;99.90;;;;;;5076456;28;20576;-62
2023/04/07 03:01:49;;;;;;;0.00;0.00;;;7.80;99.90;;;;;;5091770;28;20670;-62
2023/04/07 03:04:15;;;;;;;0.15;0.15;;;7.80;99.90;;;;;;5091696;28;20233;-62
2023/04/07 03:06:40;;;;;;;0.00;0.00;;;7.80;99.90;;;;;;5092543;28;20203;-62
2023/04/07 03:09:06;;;;;;;0.00;0.00;;;7.80;99.90;;;;;;5091857;28;20183;-62
2023/04/07 03:11:31;;;;;;;0.00;0.00;;;7.80;99.90;;;;;;5091955;28;20217;-62
2023/04/07 03:13:57;;;;;;;0.00;0.00;;;7.80;99.90;;;;;;5092299;28;20176;-61
2023/04/07 03:16:22;;;;;;;0.00;0.00;;;7.80;99.90;;;;;;5091876;28;20184;-62
2023/04/07 03:18:48;;;;;;;0.00;0.00;;;7.80;99.90;;;;;;5091702;28;20180;-62
2023/04/07 03:21:13;;;;;;;0.35;0.35;;;7.70;99.90;;;;;;5091657;28;20215;-62
2023/04/07 03:23:39;;;;;;;0.00;0.00;;;7.70;99.90;;;;;;5073202;28;20179;-62
2023/04/07 03:26:05;;;;;;;0.00;0.00;;;7.70;99.90;;;;;;5091540;28;20258;-62
2023/04/07 03:28:31;;;;;;;0.00;0.00;;;7.70;99.90;;;;;;5092085;28;20264;-62
2023/04/07 03:30:56;;;;;;;0.00;0.00;;;7.70;99.90;;;;;;5091295;28;20183;-62
2023/04/07 03:33:22;;;;;;;0.20;0.20;;;7.70;99.90;;;;;;5091205;28;20221;-62
2023/04/07 03:35:47;;;;;;;0.05;0.05;;;7.70;99.90;;;;;;5091619;28;20586;-62
2023/04/07 03:38:13;;;;;;;0.10;0.10;;;7.70;99.90;;;;;;5091585;28;20188;-62
2023/04/07 03:40:38;;;;;;;0.00;0.00;;;7.70;99.90;;;;;;5091304;28;20207;-62
2023/04/07 03:43:04;;;;;;;0.00;0.00;;;7.70;99.90;;;;;;5091179;28;20622;-62
2023/04/07 03:45:29;;;;;;;0.00;0.00;;;7.70;99.90;;;;;;5091036;28;20585;-62
2023/04/07 03:47:55;;;;;;;0.20;0.20;;;7.70;99.90;;;;;;5091473;28;20202;-62
2023/04/07 03:50:20;;;;;;;0.00;0.00;;;7.70;99.90;;;;;;5091392;28;20241;-62
2023/04/07 03:52:46;;;;;;;0.00;0.00;;;7.80;99.90;;;;;;5091083;28;20699;-62
2023/04/07 03:55:11;;;;;;;0.00;0.00;;;7.70;99.90;;;;;;5090941;28;20674;-62
2023/04/07 03:57:37;;;;;;;0.00;0.00;;;7.70;99.90;;;;;;5090838;28;20172;-62
2023/04/07 04:00:04;;;;;;;0.00;0.00;;;7.70;99.90;;;;;;5091207;28;20211;-62
2023/04/07 04:02:29;;;;;;;0.00;0.00;;;7.70;99.90;;;;;;5091492;28;20184;-63
2023/04/07 04:04:55;;;;;;;0.00;0.00;;;7.70;99.90;;;;;;5091110;28;20483;-62
2023/04/07 04:07:21;;;;;;;0.00;0.00;;;7.70;99.90;;;;;;5090802;28;20184;-62
2023/04/07 04:09:46;;;;;;;0.00;0.00;;;7.80;99.90;;;;;;5091162;28;20541;-62
2023/04/07 04:12:12;;;;;;;0.00;0.00;;;7.80;99.90;;;;;;5090956;28;20267;-61
2023/04/07 04:14:37;;;;;;;0.00;0.00;;;7.80;99.90;;;;;;5090223;28;20537;-62
2023/04/07 04:17:03;;;;;;;0.00;0.00;;;7.80;99.90;;;;;;5090904;28;20337;-61
2023/04/07 04:19:28;;;;;;;0.00;0.00;;;7.80;99.90;;;;;;5090189;28;20191;-61
2023/04/07 04:21:54;;;;;;;0.47;0.47;;;7.80;99.90;;;;;;5090917;28;20192;-62
2023/04/07 04:24:19;;;;;;;0.00;0.00;;;7.80;99.90;;;;;;5091063;28;20176;-61
2023/04/07 04:26:45;;;;;;;0.32;0.30;;;7.80;99.90;;;;;;5090676;28;20238;-61
2023/04/07 04:29:11;;;;;;;0.00;0.00;;;7.80;99.90;;;;;;5090508;28;20255;-62
2023/04/07 04:31:36;;;;;;;0.00;0.00;;;7.80;99.90;;;;;;5090237;28;20258;-62
2023/04/07 04:34:02;;;;;;;0.00;0.00;;;7.80;99.90;;;;;;5090429;28;20182;-62
2023/04/07 04:36:27;;;;;;;0.00;0.00;;;7.80;99.90;;;;;;5087427;28;20184;-61
2023/04/07 04:38:53;;;;;;;0.00;0.00;;;7.80;99.90;;;;;;5090591;28;20175;-62
2023/04/07 04:41:19;;;;;;;0.00;0.00;;;7.80;99.90;;;;;;5089605;28;20211;-61
2023/04/07 04:43:44;;;;;;;0.03;0.03;;;7.80;99.90;;;;;;5089971;28;20193;-61
2023/04/07 04:46:10;;;;;;;0.00;0.00;;;7.80;99.90;;;;;;5072237;28;20290;-61
2023/04/07 04:48:35;;;;;;;0.00;0.00;;;7.80;99.90;;;;;;5089963;28;20210;-61
2023/04/07 04:51:01;;;;;;;0.00;0.00;;;7.80;99.90;;;;;;5090004;28;20184;-61
2023/04/07 04:53:27;;;;;;;0.00;0.00;;;7.80;99.90;;;;;;5089913;28;20177;-61
2023/04/07 04:55:53;;;;;;;0.00;0.00;;;7.80;99.90;;;;;;5088081;28;20249;-62
2023/04/07 04:58:20;;;;;;;0.08;0.08;;;7.80;99.90;;;;;;5090121;28;20537;-61
2023/04/07 05:00:45;;;;;;;0.10;0.10;;;7.70;99.90;;;;;;5090042;28;20220;-61
2023/04/07 05:03:11;;;;;;;0.00;0.00;;;7.80;99.90;;;;;;5086884;28;20225;-61
2023/04/07 05:05:36;;;;;;;0.30;0.30;;;7.70;99.90;;;;;;5089109;28;20176;-61
2023/04/07 05:08:02;;;;;;;0.10;0.10;;;7.70;99.90;;;;;;5089868;28;20259;-61
2023/04/07 05:10:27;;;;;;;0.00;0.00;;;7.70;99.90;;;;;;5089662;28;20269;-61
2023/04/07 05:12:53;;;;;;;0.17;0.17;;;7.70;99.90;;;;;;5089350;28;20184;-61
2023/04/07 05:15:18;;;;;;;0.00;0.00;;;7.60;99.90;;;;;;5089675;28;20697;-61
2023/04/07 05:17:49;;;;;;;0.55;0.55;;;7.60;99.90;;;;;;5089341;28;20176;-61
2023/04/07 05:20:15;;;;;;;0.00;0.00;;;7.50;99.90;;;;;;5089517;28;20257;-62
2023/04/07 05:22:40;;;;;;;0.10;0.10;;;7.50;99.90;;;;;;5089931;28;20275;-61
2023/04/07 05:25:06;;;;;;;0.05;0.05;;;7.50;99.90;;;;;;5089137;28;20267;-61
2023/04/07 05:27:32;;;;;;;0.38;0.03;;;7.50;99.90;;;;;;5091194;28;20738;-61
2023/04/07 05:29:57;;;;;;;0.00;0.00;;;7.50;99.90;;;;;;5093495;28;20249;-62
2023/04/07 05:32:23;;;;;;;0.00;0.00;;;7.50;99.90;;;;;;5075516;28;20172;-61
2023/04/07 05:34:49;;;;;;;0.10;0.10;;;7.50;99.90;;;;;;5092836;28;20198;-62
2023/04/07 05:37:14;;;;;;;0.00;0.00;;;7.50;99.90;;;;;;5093428;28;20180;-61
2023/04/07 05:39:40;;;;;;;0.00;0.00;;;7.50;99.90;;;;;;5092557;28;20617;-61
2023/04/07 05:42:06;;;;;;;0.00;0.00;;;7.60;99.90;;;;;;5093566;28;20187;-61
2023/04/07 05:44:32;;;;;;;0.00;0.00;;;7.60;99.90;;;;;;5093515;28;20184;-61
2023/04/07 05:46:57;;;;;;;0.00;0.00;;;7.70;99.90;;;;;;5093114;28;20270;-61
2023/04/07 05:49:23;;;;;;;0.00;0.00;;;7.80;99.90;;;;;;5093214;28;20188;-61
2023/04/07 05:51:48;;;;;;;0.00;0.00;;;7.80;99.90;;;;;;5093240;28;20176;-62
2023/04/07 05:54:14;;;;;;;0.08;0.08;;;7.90;99.90;;;;;;5093449;28;20282;-62
2023/04/07 05:56:40;;;;;;;0.00;0.00;;;8.00;99.90;;;;;;5089865;28;20188;-62
2023/04/07 05:59:05;;;;;;;0.00;0.00;;;8.10;99.90;;;;;;5093550;28;20549;-61
2023/04/07 06:01:30;;;;;;;0.00;0.00;;;8.10;99.90;;;;;;5093282;28;20261;-62
2023/04/07 06:03:57;;;;;;;0.00;0.00;;;8.10;99.90;;;;;;5092749;28;20627;-62
2023/04/07 06:06:23;;;;;;;0.00;0.00;;;8.20;99.90;;;;;;5092363;28;20178;-61
2023/04/07 06:08:48;;;;;;;0.00;0.00;;;8.20;99.90;;;;;;5093112;28;20172;-61
2023/04/07 06:11:14;;;;;;;0.00;0.00;;;8.20;99.90;;;;;;5093251;28;20188;-62
2023/04/07 06:13:40;;;;;;;0.00;0.00;;;8.20;99.90;;;;;;5092550;28;20168;-62
2023/04/07 06:16:05;;;;;;;0.22;0.22;;;8.30;99.90;;;;;;5093150;28;20247;-61
2023/04/07 06:18:31;;;;;;;0.00;0.00;;;8.40;99.90;;;;;;5092915;28;20168;-61
2023/04/07 06:20:56;;;;;;;0.10;0.10;;;8.40;99.90;;;;;;5092870;28;20616;-62
2023/04/07 06:23:22;;;;;;;0.00;0.00;;;8.50;99.90;;;;;;5093019;28;20177;-62
2023/04/07 06:25:52;;;;;;;0.00;0.00;;;8.60;99.90;;;;;;5092104;28;20538;-61
2023/04/07 06:28:17;;;;;;;0.00;0.00;;;8.70;99.90;;;;;;5092524;28;20243;-61
2023/04/07 06:30:43;;;;;;;0.00;0.00;;;8.80;99.90;;;;;;5092050;28;20207;-61
2023/04/07 06:33:09;;;;;;;0.00;0.00;;;8.80;99.90;;;;;;5092992;28;21249;-62
2023/04/07 06:35:34;;;;;;;0.00;0.00;;;8.90;99.90;;;;;;5092431;28;20176;-62
2023/04/07 06:38:01;;;;;;;0.00;0.00;;;9.00;99.90;;;;;;5091704;28;20903;-61
2023/04/07 06:40:26;;;;;;;0.10;0.10;;;9.00;99.90;;;;;;5092039;28;20295;-62
2023/04/07 06:42:53;;;;;;;0.00;0.00;;;9.20;99.90;;;;;;5091967;28;20271;-62
2023/04/07 06:45:19;;;;;;;0.00;0.00;;;9.30;99.90;;;;;;5092790;28;20161;-61
2023/04/07 06:47:44;;;;;;;0.00;0.00;;;9.80;99.90;;;;;;5091886;28;20255;-62
2023/04/07 06:50:10;;;;;;;0.08;0.08;;;10.40;99.90;;;;;;5093024;28;20544;-61
2023/04/07 06:52:36;;;;;;;0.00;0.00;;;11.20;99.90;;;;;;5092287;28;20180;-62
2023/04/07 06:55:02;;;;;;;0.00;0.00;;;12.10;99.90;;;;;;5087794;28;20181;-62
2023/04/07 06:57:27;;;;;;;0.00;0.00;;;12.70;99.90;;;;;;5069508;28;20184;-62
2023/04/07 06:59:53;;;;;;;0.00;0.00;;;13.40;99.90;;;;;;5091959;28;20197;-63
2023/04/07 07:02:18;;;;;;;0.05;0.05;;;14.00;99.90;;;;;;5092230;28;20191;-62
2023/04/07 07:04:44;;;;;;;0.00;0.00;;;14.60;99.80;;;;;;5092366;28;20188;-63
2023/04/07 07:07:09;;;;;;;0.00;0.00;;;15.10;99.00;;;;;;5091949;28;20180;-63
2023/04/07 07:09:35;;;;;;;0.00;0.00;;;15.70;97.70;;;;;;5092156;28;20720;-63
2023/04/07 07:12:01;;;;;;;0.00;0.00;;;16.20;95.40;;;;;;5091652;28;20172;-60
2023/04/07 07:14:27;;;;;;;0.00;0.00;;;16.40;93.00;;;;;;5092668;28;20206;-60
2023/04/07 07:16:52;;;;;;;0.00;0.00;;;16.20;91.30;;;;;;5092204;28;20556;-60
2023/04/07 07:19:18;;;;;;;0.00;0.00;;;16.20;91.30;;;;;;5092115;28;20172;-61
2023/04/07 07:21:43;;;;;;;0.00;0.00;;;16.40;90.50;;;;;;5092160;28;20690;-59
2023/04/07 07:24:09;;;;;;;0.00;0.00;;;16.50;90.50;;;;;;5092072;28;20272;-59
2023/04/07 07:26:34;;;;;;;0.00;0.00;;;16.90;89.70;;;;;;5091593;28;20231;-58
2023/04/07 07:29:00;;;;;;;0.00;0.00;;;17.00;88.30;;;;;;5092393;28;20265;-58
2023/04/07 07:31:25;;;;;;;0.00;0.00;;;17.30;86.00;;;;;;5092036;28;20176;-60
2023/04/07 07:33:51;;;;;;;0.00;0.00;;;17.50;86.00;;;;;;5091476;28;20591;-59
2023/04/07 07:36:17;;;;;;;0.00;0.00;;;17.80;84.20;;;;;;5091534;28;20179;-61
2023/04/07 07:38:42;;;;;;;0.08;0.08;;;18.30;83.40;;;;;;5091925;28;20180;-60
2023/04/07 07:41:08;;;;;;;0.00;0.00;;;18.90;80.70;;;;;;5092089;28;20301;-59
2023/04/07 07:43:34;;;;;;;0.00;0.00;;;19.40;77.90;;;;;;5091953;28;20172;-58
2023/04/07 07:45:59;;;;;;;0.00;0.00;;;19.80;75.50;;;;;;5091589;28;20176;-58
2023/04/07 07:48:25;;;;;;;0.00;0.00;;;20.00;74.60;;;;;;5091902;28;20645;-58
2023/04/07 07:50:51;;;;;;;0.47;0.25;;;20.10;72.70;;;;;;5091616;28;20704;-59
2023/04/07 07:53:17;;;;;;;0.00;0.00;;;20.40;72.10;;;;;;5091922;28;20574;-58
2023/04/07 07:55:42;;;;;;;0.00;0.00;;;20.40;70.20;;;;;;5091872;28;20184;-58
2023/04/07 07:58:08;;;;;;;0.00;0.00;;;20.40;70.40;;;;;;5091949;28;20266;-58
2023/04/07 08:00:34;;;;;;;0.00;0.00;;;20.30;68.70;;;;;;5091787;28;20227;-58
2023/04/07 08:02:59;;;;;;;0.00;0.00;;;20.40;68.50;;;;;;5091706;28;20172;-58
2023/04/07 08:05:25;;;;;;;0.00;0.00;;;20.70;68.30;;;;;;5091654;28;20228;-58
2023/04/07 08:07:52;;;;;;;0.00;0.00;;;20.90;67.00;;;;;;5091405;28;20200;-59
2023/04/07 08:10:19;;;;;;;0.00;0.00;;;20.80;66.40;;;;;;5091805;28;20181;-59
2023/04/07 08:12:45;;;;;;;0.00;0.00;;;20.50;67.20;;;;;;5091643;28;20226;-60
2023/04/07 08:15:10;;;;;;;0.00;0.00;;;20.80;67.00;;;;;;5091159;28;20207;-60
2023/04/07 08:17:36;;;;;;;0.10;0.10;;;21.10;67.00;;;;;;5091427;28;20176;-59
2023/04/07 08:20:04;;;;;;;0.00;0.00;;;21.10;65.40;;;;;;5091726;28;20670;-59
2023/04/07 08:22:30;;;;;;;0.00;0.00;;;21.20;65.60;;;;;;5091396;28;20258;-60
2023/04/07 08:24:55;;;;;;;0.00;0.00;;;21.30;65.20;;;;;;5091321;28;20291;-59
2023/04/07 08:27:21;;;;;;;0.00;0.00;;;21.40;64.90;;;;;;5090986;28;20285;-59
2023/04/07 08:30:02;;;;;;;0.00;0.00;;;21.50;64.00;;;;;;5091401;28;20595;-59
2023/04/07 08:32:39;;;;;;;0.00;0.00;;;21.80;63.70;;;;;;5091459;28;20180;-59
2023/04/07 08:35:05;;;;;;;0.00;0.00;;;21.80;61.60;;;;;;5091403;28;20529;-59
2023/04/07 08:37:32;;;;;;;0.10;0.10;;;21.90;62.20;;;;;;5090634;28;20202;-60
2023/04/07 08:39:58;;;;;;;0.00;0.00;;;22.00;60.60;;;;;;5090902;28;20171;-60
2023/04/07 08:42:28;;;;;;;0.00;0.00;;;22.00;59.60;;;;;;5090875;28;20543;-60
2023/04/07 08:44:57;;;;;;;0.00;0.00;;;21.90;59.90;;;;;;5091052;28;20205;-60
2023/04/07 08:47:25;;;;;;;0.00;0.00;;;21.70;60.90;;;;;;5091271;28;20172;-60
2023/04/07 08:49:51;;;;;;;0.00;0.00;;;21.10;60.40;;;;;;5090987;28;20278;-59
2023/04/07 08:52:22;;;;;;;0.00;0.00;;;20.70;64.50;;;;;;5091078;28;20525;-59
2023/04/07 08:54:48;;;;;;;0.00;0.00;;;20.80;63.30;;;;;;5087594;28;20662;-59
2023/04/07 08:57:15;;;;;;;0.00;0.00;;;20.60;61.50;;;;;;5087815;28;20229;-60
2023/04/07 08:59:44;;;;;;;0.00;0.00;;;20.60;63.00;;;;;;5090724;28;20233;-59
2023/04/07 09:02:10;;;;;;;0.00;0.00;;;20.80;63.80;;;;;;5091864;28;20665;-59
2023/04/07 09:04:35;;;;;;;0.00;0.00;;;20.50;62.40;;;;;;5076361;28;20172;-60
2023/04/07 09:07:02;;;;;;;0.00;0.00;;;20.70;63.50;;;;;;5094558;28;20658;-59
2023/04/07 09:09:28;;;;;;;0.00;0.00;;;20.80;62.40;;;;;;5094755;28;20233;-59
2023/04/07 09:11:54;;;;;;;0.00;0.00;;;20.80;63.00;;;;;;5094474;28;20176;-59
2023/04/07 09:14:20;;;;;;;0.00;0.00;;;20.80;63.70;;;;;;5094785;28;20172;-59
2023/04/07 09:16:46;;;;;;;0.00;0.00;;;20.90;62.80;;;;;;5094803;28;20635;-59
2023/04/07 09:19:12;;;;;;;0.00;0.00;;;20.60;61.30;;;;;;5094936;28;20183;-59
2023/04/07 09:21:51;;;;;;;0.00;0.00;;;20.10;61.50;;;;;;5094733;28;20223;-60
2023/04/07 09:24:20;;;;;;;0.10;0.10;;;19.00;62.30;;;;;;5094858;28;20168;-60
2023/04/07 09:26:46;;;;;;;0.00;0.00;;;18.50;65.70;;;;;;5094550;28;21006;-60
2023/04/07 09:29:18;;;;;;;0.00;0.00;;;18.60;67.80;;;;;;5094761;28;20204;-60
2023/04/07 09:31:44;;;;;;;0.00;0.00;;;18.80;68.20;;;;;;5094564;28;20187;-59
2023/04/07 09:34:37;;;;;;;0.00;0.00;;;18.80;66.60;;;;;;5094873;28;20180;-60
2023/04/07 09:37:05;;;;;;;0.00;0.00;;;18.70;66.70;;;;;;5090855;28;20180;-60
2023/04/07 09:39:31;;;;;;;0.00;0.00;;;18.50;66.60;;;;;;5094578;28;20698;-60
2023/04/07 09:41:57;;;;;;;0.00;0.00;;;18.10;66.40;;;;;;5094606;28;20306;-60
2023/04/07 09:44:24;;;;;;;0.00;0.00;;;17.90;67.00;;;;;;5094567;28;20172;-60
2023/04/07 09:46:57;;;;;;;0.00;0.00;;;17.80;67.40;;;;;;5094286;28;20191;-60
2023/04/07 09:49:26;;;;;;;0.00;0.00;;;17.50;68.60;;;;;;5094217;28;20252;-60
2023/04/07 09:51:53;;;;;;;0.00;0.00;;;17.20;69.50;;;;;;5093758;28;20207;-60
2023/04/07 09:54:40;;;;;;;0.00;0.00;;;16.90;70.30;;;;;;5093650;28;20187;-60
2023/04/07 09:57:10;;;;;;;0.00;0.00;;;16.70;71.70;;;;;;5090592;28;20259;-60
2023/04/07 09:59:38;;;;;;;0.00;0.00;;;16.50;72.20;;;;;;5093140;28;20221;-60
2023/04/07 10:02:05;;;;;;;0.00;0.00;;;16.50;73.10;;;;;;5075580;28;20228;-60
2023/04/07 10:04:30;;;;;;;0.25;0.25;;;16.60;73.30;;;;;;5084023;28;20180;-60
2023/04/07 10:06:58;;;;;;;0.00;0.00;;;16.70;73.20;;;;;;5082505;28;20188;-60
2023/04/07 10:09:25;;;;;;;0.00;0.00;;;17.00;74.50;;;;;;5093941;28;20251;-60
2023/04/07 10:11:52;;;;;;;0.00;0.00;;;17.50;73.70;;;;;;5093694;28;20172;-60
2023/04/07 10:14:20;;;;;;;0.00;0.00;;;17.90;71.10;;;;;;5086483;28;20173;-60
2023/04/07 10:16:46;;;;;;;0.00;0.00;;;18.10;70.50;;;;;;5092795;28;20180;-60
2023/04/07 10:19:13;;;;;;;0.00;0.00;;;18.30;69.40;;;;;;5093981;28;20172;-60
2023/04/07 10:21:41;;;;;;;0.00;0.00;;;18.20;68.30;;;;;;5093469;28;20291;-60
2023/04/07 10:24:07;;;;;;;0.00;0.00;;;18.20;67.80;;;;;;5093858;28;20276;-60
2023/04/07 10:26:35;;;;;;;0.00;0.00;;;18.00;69.10;;;;;;5092881;28;20215;-60
2023/04/07 10:29:10;;;;;;;0.08;0.08;;;17.90;68.40;;;;;;5093637;28;20188;-60
2023/04/07 10:31:37;;;;;;;0.00;0.00;;;17.60;69.20;;;;;;5092754;28;20211;-60
2023/04/07 10:34:04;;;;;;;0.00;0.00;;;17.50;67.20;;;;;;5093312;28;20172;-60
2023/04/07 10:36:30;;;;;;;0.00;0.00;;;17.40;67.30;;;;;;5075355;28;20205;-59
2023/04/07 10:39:08;;;;;;;0.00;0.00;;;17.40;68.20;;;;;;5093248;28;20192;-60
2023/04/07 10:41:35;;;;;;;0.00;0.00;;;17.40;68.90;;;;;;5093270;28;20207;-59
2023/04/07 10:44:04;;;;;;;0.20;0.20;;;17.40;68.90;;;;;;5093021;28;20180;-59
2023/04/07 10:46:46;;;;;;;0.00;0.00;;;17.40;69.10;;;;;;5093155;28;20569;-59
2023/04/07 10:49:15;;;;;;;0.00;0.00;;;17.30;70.10;;;;;;5093278;28;21321;-60
2023/04/07 10:51:41;;;;;;;0.00;0.00;;;17.30;70.40;;;;;;5092758;28;20588;-59
2023/04/07 10:54:21;;;;;;;0.00;0.00;;;17.30;70.20;;;;;;5093004;28;20240;-60
2023/04/07 10:57:01;;;;;;;0.00;0.00;;;17.30;70.60;;;;;;5093082;28;20235;-60
2023/04/07 10:59:28;;;;;;;0.00;0.00;;;17.30;71.30;;;;;;5092944;28;20176;-60
2023/04/07 11:02:15;;;;;;;0.00;0.00;;;17.30;69.90;;;;;;5091998;28;20647;-60
2023/04/07 11:04:45;;;;;;;0.00;0.00;;;17.30;69.70;;;;;;5091735;28;20539;-59
2023/04/07 11:07:13;;;;;;;0.00;0.00;;;17.30;70.20;;;;;;5092457;28;20578;-60
2023/04/07 11:09:42;;;;;;;0.00;0.00;;;17.30;70.80;;;;;;5092708;28;20289;-60
2023/04/07 11:12:07;;;;;;;0.00;0.00;;;17.40;70.50;;;;;;5091805;28;20187;-60
2023/04/07 11:14:36;;;;;;;0.00;0.00;;;17.50;69.60;;;;;;5091509;28;20180;-60
2023/04/07 11:17:02;;;;;;;0.00;0.00;;;17.60;68.80;;;;;;5092681;28;20186;-60
2023/04/07 11:19:28;;;;;;;0.00;0.00;;;17.50;68.50;;;;;;5092274;28;20180;-60
2023/04/07 11:22:13;;;;;;;0.00;0.00;;;17.50;68.70;;;;;;5092280;28;20235;-60
2023/04/07 11:24:39;;;;;;;0.00;0.00;;;17.50;69.80;;;;;;5091644;28;20172;-59
2023/04/07 11:27:05;;;;;;;0.00;0.00;;;17.60;70.30;;;;;;5092378;28;20219;-60
2023/04/07 11:29:32;;;;;;;0.00;0.00;;;17.70;70.50;;;;;;5092523;28;20259;-60
2023/04/07 11:32:01;;;;;;;0.00;0.00;;;18.10;68.10;;;;;;5092065;28;20167;-59
2023/04/07 11:34:34;;;;;;;0.00;0.00;;;18.10;68.60;;;;;;5092392;28;20183;-60
2023/04/07 11:37:20;;;;;;;0.00;0.00;;;18.00;68.80;;;;;;5092206;28;20171;-59
2023/04/07 11:39:52;;;;;;;0.00;0.00;;;18.10;67.70;;;;;;5092254;28;20273;-59
2023/04/07 11:42:34;;;;;;;0.00;0.00;;;18.10;68.30;;;;;;5091671;28;20199;-60
2023/04/07 11:45:00;;;;;;;0.00;0.00;;;18.10;68.60;;;;;;5091806;28;20221;-60
2023/04/07 11:47:36;;;;;;;0.00;0.00;;;18.10;67.60;;;;;;5091971;28;20172;-60
2023/04/07 11:50:01;;;;;;;0.00;0.00;;;18.00;67.60;;;;;;5091937;28;20263;-60
2023/04/07 11:52:27;;;;;;;0.00;0.00;;;17.50;67.90;;;;;;5091462;28;20255;-60
2023/04/07 11:54:52;;;;;;;0.00;0.00;;;17.40;69.70;;;;;;5085439;28;20283;-60
2023/04/07 11:57:28;;;;;;;0.00;0.00;;;17.10;70.30;;;;;;5089750;28;20199;-60
2023/04/07 12:00:11;;;;;;;0.00;0.00;;;16.90;70.50;;;;;;5076254;28;20176;-60
2023/04/07 12:02:37;;;;;;;0.00;0.00;;;17.00;70.40;;;;;;5091192;28;20180;-61
2023/04/07 12:05:03;;;;;;;0.00;0.00;;;16.90;72.40;;;;;;5090854;28;20279;-61
2023/04/07 12:07:28;;;;;;;0.00;0.00;;;16.50;73.90;;;;;;5090413;28;20712;-60
2023/04/07 12:09:54;;;;;;;0.00;0.00;;;16.30;74.40;;;;;;5091255;28;20262;-60
2023/04/07 12:12:28;;;;;;;0.00;0.00;;;16.40;76.00;;;;;;5091233;28;20179;-60
2023/04/07 12:14:55;;;;;;;0.00;0.00;;;16.70;75.10;;;;;;5091053;28;20180;-61
2023/04/07 12:17:26;;;;;;;0.00;0.00;;;17.00;74.50;;;;;;5090387;28;20267;-60
2023/04/07 12:19:52;;;;;;;0.00;0.00;;;17.40;75.00;;;;;;5090888;28;20225;-61
2023/04/07 12:22:18;;;;;;;0.00;0.00;;;18.10;76.40;;;;;;5090514;28;20180;-60
2023/04/07 12:24:44;;;;;;;0.00;0.00;;;18.50;70.90;;;;;;5090639;28;20188;-61
2023/04/07 12:27:10;;;;;;;0.00;0.00;;;18.50;70.00;;;;;;5085425;28;20582;-60
2023/04/07 12:29:36;;;;;;;0.00;0.00;;;18.60;67.10;;;;;;5087563;28;20241;-60
2023/04/07 12:32:03;;;;;;;0.00;0.00;;;18.40;68.90;;;;;;5090203;28;20635;-60
2023/04/07 12:34:28;;;;;;;0.00;0.00;;;18.10;69.60;;;;;;5083248;28;20514;-60
2023/04/07 12:36:54;;;;;;;0.00;0.00;;;17.80;70.50;;;;;;5071621;28;20264;-60
2023/04/07 12:39:20;;;;;;;0.00;0.00;;;17.70;71.30;;;;;;5090370;28;20179;-60
2023/04/07 12:41:47;;;;;;;0.00;0.00;;;17.70;72.20;;;;;;5090551;28;20250;-60
2023/04/07 12:44:14;;;;;;;0.00;0.00;;;18.00;72.60;;;;;;5090296;28;20278;-60
2023/04/07 12:46:40;;;;;;;0.00;0.00;;;18.10;71.60;;;;;;5089255;28;20191;-60
2023/04/07 12:49:05;;;;;;;0.00;0.00;;;18.20;70.90;;;;;;5084293;28;20176;-60
2023/04/07 12:51:32;;;;;;;0.00;0.00;;;18.20;69.10;;;;;;5089966;28;20179;-60
2023/04/07 12:53:59;;;;;;;0.00;0.00;;;18.30;68.00;;;;;;5090144;28;20195;-60